KHRO

Boone County Airport

Harrison, Arkansas, USA
KHRO 221141Z 2212/2312 15010G18KT P6SM OVC025 WS020/18050KT FM221500 15014G22KT P6SM VCSH SCT012 OVC020 WS020/19050KT FM222100 15014G22KT 5SM -RA BR SCT007 OVC012 FM230400 27012G20KT 4SM -RA BR OVC007 FM230800 29012G20KT P6SM -SN OVC012
Issued Valid From Valid To
Jan-22 @ 11:41 UTC
(5 hours ago)
Jan-22 @ 12:00 UTC
(5 hours ago)
Jan-23 @ 12:00 UTC
(in 19 hours)
Expired Click to View Jan-22 @ 12:00 to Jan-22 @ 15:00
KHRO 221141Z 2212/2312 15010G18KT P6SM OVC025 WS020/18050KT
Wind Visibility Clouds
150° at 10 knots
 Gusting to 18 knots
 Wind shear 2,000' AGL from 180° at 50 knots
Greater than 6 miles
  • Overcast at 2,500' AGL
From Jan-22 @ 15:00 to Jan-22 @ 21:00
FM221500 15014G22KT P6SM VCSH SCT012 OVC020 WS020/19050KT
Wind Visibility Clouds
150° at 14 knots
 Gusting to 22 knots
 Wind shear 2,000' AGL from 190° at 50 knots
Greater than 6 miles
  • Scattered at 1,200' AGL
  • Overcast at 2,000' AGL
From Jan-22 @ 21:00 to Jan-23 @ 04:00
FM222100 15014G22KT 5SM -RA BR SCT007 OVC012
Wind Visibility Clouds Conditions
150° at 14 knots
 Gusting to 22 knots
5 miles
  • Scattered at 700' AGL
  • Overcast at 1,200' AGL
  • Light Rain
  • Mist
From Jan-23 @ 04:00 to Jan-23 @ 08:00
FM230400 27012G20KT 4SM -RA BR OVC007
Wind Visibility Clouds Conditions
270° at 12 knots
 Gusting to 20 knots
4 miles
  • Overcast at 700' AGL
  • Light Rain
  • Mist
From Jan-23 @ 08:00 to Jan-23 @ 12:00
FM230800 29012G20KT P6SM -SN OVC012
Wind Visibility Clouds Conditions
290° at 12 knots
 Gusting to 20 knots
Greater than 6 miles
  • Overcast at 1,200' AGL
  • Light Snow
KHRO 221141Z 2212/2312 15010G18KT P6SM OVC025 WS020/18050KT FM221500 15014G22KT P6SM VCSH SCT012 OVC020 WS020/19050KT FM222100 15014G22KT 5SM -RA BR SCT007 OVC012 FM230400 27012G20KT 4SM -RA BR OVC007 FM230800 29012G20KT P6SM -SN OVC012
Issued Jan-22 @ 11:41 UTC
(5 hours ago)
Valid From Jan-22 @ 12:00 UTC
(5 hours ago)
Valid To Jan-23 @ 12:00 UTC
(in 19 hours)
Jan-22 @ 12:00 - Jan-22 @ 15:00
Wind Visibility
150° at 10 knots
 Gusting to 18 knots
Greater than 6 miles
Clouds
  • Overcast at 2,500' AGL
From Jan-22 @ 15:00 - Jan-22 @ 21:00
Wind Visibility
150° at 14 knots
 Gusting to 22 knots
Greater than 6 miles
Clouds
  • Scattered at 1,200' AGL
  • Overcast at 2,000' AGL
From Jan-22 @ 21:00 - Jan-23 @ 04:00
Wind Visibility
150° at 14 knots
 Gusting to 22 knots
5 miles
Clouds
  • Scattered at 700' AGL
  • Overcast at 1,200' AGL
Conditions
  • Light Rain
  • Mist
From Jan-23 @ 04:00 - Jan-23 @ 08:00
Wind Visibility
270° at 12 knots
 Gusting to 20 knots
4 miles
Clouds
  • Overcast at 700' AGL
Conditions
  • Light Rain
  • Mist
From Jan-23 @ 08:00 - Jan-23 @ 12:00
Wind Visibility
290° at 12 knots
 Gusting to 20 knots
Greater than 6 miles
Clouds
  • Overcast at 1,200' AGL
Conditions
  • Light Snow